Time;durP1;ratioP1;P1;durP2;ratioP2;P2;SDS_P1;SDS_P2;PMS_P1;PMS_P2;Temp;Humidity;BMP_temperature;BMP_pressure;BME280_temperature;BME280_humidity;BME280_pressure;Samples;Min_cycle;Max_cycle;Signal;HPM_P1;HPM_P2
2022/11/23 15:23:26;;;;;;;0.50;0.50;;;;;;;;;;6194246;22;20217;-75
2022/11/23 15:25:53;;;;;;;0.60;0.60;;;;;;;;;;6226932;22;1207522;-76
2022/11/23 15:28:23;;;;;;;0.40;0.40;;;;;;;;;;6335528;22;20556;-75
2022/11/23 15:30:49;;;;;;;0.50;0.50;;;;;;;;;;6337973;22;20267;-76
2022/11/23 15:33:18;;;;;;;0.60;0.60;;;;;;;;;;6318866;22;20165;-76
2022/11/23 15:35:44;;;;;;;0.70;0.70;;;;;;;;;;6306491;22;20161;-77
2022/11/23 15:38:12;;;;;;;0.60;0.60;;;;;;;;;;6305810;22;20224;-77
2022/11/23 15:40:40;;;;;;;0.70;0.70;;;;;;;;;;6307058;22;20157;-76
2022/11/23 15:43:11;;;;;;;0.60;0.60;;;;;;;;;;6304746;22;20166;-75
2022/11/23 15:45:43;;;;;;;0.70;0.70;;;;;;;;;;6280620;22;20550;-79
2022/11/23 15:48:09;;;;;;;0.60;0.60;;;;;;;;;;6313436;22;20255;-76
2022/11/23 15:50:42;;;;;;;0.60;0.60;;;;;;;;;;6308780;22;20233;-77
2022/11/23 15:53:08;;;;;;;0.70;0.70;;;;;;;;;;6305431;22;20203;-77
2022/11/23 15:55:34;;;;;;;0.70;0.70;;;;;;;;;;6301747;22;20154;-75
2022/11/23 15:58:02;;;;;;;0.60;0.60;;;;;;;;;;6305401;22;20188;-75
2022/11/23 16:00:28;;;;;;;0.60;0.60;;;;;;;;;;6303804;22;20161;-78
2022/11/23 16:03:14;;;;;;;0.77;0.77;;;;;;;;;;6303977;22;20175;-76
2022/11/23 16:05:40;;;;;;;0.70;0.70;;;;;;;;;;6305741;22;20202;-77
2022/11/23 16:08:22;;;;;;;0.60;0.60;;;;;;;;;;6303588;22;20153;-75
2022/11/23 16:10:54;;;;;;;0.70;0.70;;;;;;;;;;6305507;22;20211;-75
2022/11/23 16:13:52;;;;;;;0.73;0.73;;;;;;;;;;6304791;22;20231;-75
2022/11/23 16:16:20;;;;;;;0.70;0.70;;;;;;;;;;6224103;22;20662;-77
2022/11/23 16:18:48;;;;;;;0.60;0.60;;;;;;;;;;6309334;22;20639;-75
2022/11/23 16:21:17;;;;;;;0.67;0.67;;;;;;;;;;6308535;22;20149;-78
2022/11/23 16:23:44;;;;;;;0.60;0.60;;;;;;;;;;6306175;22;20169;-75
2022/11/23 16:26:11;;;;;;;0.80;0.80;;;;;;;;;;6310795;22;20264;-75
2022/11/23 16:28:39;;;;;;;0.60;0.60;;;;;;;;;;6307889;22;20154;-75
2022/11/23 16:31:05;;;;;;;0.80;0.80;;;;;;;;;;6307886;22;20202;-76
2022/11/23 16:33:31;;;;;;;0.60;0.60;;;;;;;;;;6305733;22;20192;-77
2022/11/23 16:35:57;;;;;;;0.60;0.60;;;;;;;;;;6307411;22;20231;-77
2022/11/23 16:38:23;;;;;;;0.60;0.60;;;;;;;;;;6307156;22;20212;-77
2022/11/23 16:40:50;;;;;;;0.60;0.60;;;;;;;;;;6306755;22;20236;-76
2022/11/23 16:43:16;;;;;;;0.60;0.60;;;;;;;;;;6305328;22;20169;-76
2022/11/23 16:45:44;;;;;;;0.60;0.60;;;;;;;;;;6305770;22;20153;-76
2022/11/23 16:48:25;;;;;;;0.70;0.70;;;;;;;;;;6305539;22;20161;-77
2022/11/23 16:50:51;;;;;;;0.57;0.57;;;;;;;;;;6305633;22;20181;-75
2022/11/23 16:53:18;;;;;;;0.63;0.63;;;;;;;;;;6304603;22;20611;-75
2022/11/23 16:55:49;;;;;;;0.60;0.60;;;;;;;;;;6305682;22;20746;-75
2022/11/23 16:58:16;;;;;;;0.70;0.70;;;;;;;;;;6305960;22;20215;-75
2022/11/23 17:00:42;;;;;;;0.53;0.53;;;;;;;;;;6305477;22;20248;-75
2022/11/23 17:03:15;;;;;;;0.70;0.70;;;;;;;;;;6304865;22;20161;-75
2022/11/23 17:05:41;;;;;;;0.60;0.60;;;;;;;;;;6306349;22;20149;-77
2022/11/23 17:08:07;;;;;;;0.60;0.60;;;;;;;;;;6307165;22;20150;-75
2022/11/23 17:10:34;;;;;;;0.60;0.60;;;;;;;;;;6306047;22;20153;-75
2022/11/23 17:13:00;;;;;;;0.70;0.70;;;;;;;;;;6308999;22;20252;-76
2022/11/23 17:15:26;;;;;;;0.60;0.60;;;;;;;;;;6306860;22;20153;-77
2022/11/23 17:17:52;;;;;;;0.50;0.50;;;;;;;;;;6306521;22;20180;-76
2022/11/23 17:20:18;;;;;;;0.60;0.60;;;;;;;;;;6279379;22;20291;-75
2022/11/23 17:22:44;;;;;;;0.53;0.53;;;;;;;;;;6307151;22;20231;-76
2022/11/23 17:25:12;;;;;;;0.60;0.60;;;;;;;;;;6305152;22;20169;-75
2022/11/23 17:27:40;;;;;;;0.60;0.60;;;;;;;;;;6304662;22;20570;-76
2022/11/23 17:30:10;;;;;;;0.70;0.70;;;;;;;;;;6304876;22;20165;-76
2022/11/23 17:32:36;;;;;;;0.70;0.70;;;;;;;;;;6304967;22;20633;-76
2022/11/23 17:35:02;;;;;;;0.60;0.60;;;;;;;;;;6304873;22;20189;-76
2022/11/23 17:37:28;;;;;;;0.60;0.60;;;;;;;;;;6305513;22;20173;-76
2022/11/23 17:39:54;;;;;;;0.70;0.70;;;;;;;;;;6306534;22;20199;-76
2022/11/23 17:42:20;;;;;;;0.60;0.60;;;;;;;;;;6305357;22;20169;-76
2022/11/23 17:44:46;;;;;;;0.70;0.70;;;;;;;;;;6304939;22;20172;-75
2022/11/23 17:47:18;;;;;;;0.60;0.60;;;;;;;;;;6305695;22;20168;-75
2022/11/23 17:49:44;;;;;;;0.60;0.60;;;;;;;;;;6307662;22;20149;-75
2022/11/23 17:52:11;;;;;;;0.70;0.70;;;;;;;;;;6306689;22;20196;-75
2022/11/23 17:54:36;;;;;;;0.50;0.50;;;;;;;;;;6306015;22;20599;-76
2022/11/23 17:57:02;;;;;;;0.57;0.57;;;;;;;;;;6307372;22;20149;-77
2022/11/23 17:59:28;;;;;;;0.60;0.60;;;;;;;;;;6305065;22;20185;-76
2022/11/23 18:01:54;;;;;;;0.53;0.53;;;;;;;;;;6304031;22;20200;-75
2022/11/23 18:04:20;;;;;;;0.60;0.60;;;;;;;;;;6304580;22;20177;-75
2022/11/23 18:06:46;;;;;;;0.60;0.60;;;;;;;;;;6305585;22;20279;-75
2022/11/23 18:09:12;;;;;;;0.70;0.70;;;;;;;;;;6306777;22;20201;-78
2022/11/23 18:11:38;;;;;;;0.60;0.60;;;;;;;;;;6316138;22;20164;-76
2022/11/23 18:14:04;;;;;;;0.60;0.60;;;;;;;;;;6322397;22;20169;-77
2022/11/23 18:16:30;;;;;;;0.60;0.60;;;;;;;;;;6308250;22;20149;-78
2022/11/23 18:18:56;;;;;;;0.57;0.57;;;;;;;;;;6304399;22;20181;-77
2022/11/23 18:21:22;;;;;;;0.70;0.70;;;;;;;;;;6305046;22;20199;-78
2022/11/23 18:23:48;;;;;;;0.60;0.60;;;;;;;;;;6304668;22;20165;-78
2022/11/23 18:26:19;;;;;;;0.70;0.70;;;;;;;;;;6305414;22;20199;-79
2022/11/23 18:28:45;;;;;;;0.63;0.63;;;;;;;;;;6307244;22;20153;-77
2022/11/23 18:31:11;;;;;;;0.60;0.60;;;;;;;;;;6307461;22;20157;-76
2022/11/23 18:33:37;;;;;;;0.60;0.60;;;;;;;;;;6306153;22;20481;-77
2022/11/23 18:36:03;;;;;;;0.70;0.70;;;;;;;;;;6307343;22;20157;-79
2022/11/23 18:38:29;;;;;;;0.60;0.60;;;;;;;;;;6306476;22;20184;-77
2022/11/23 18:40:55;;;;;;;0.70;0.70;;;;;;;;;;6306847;22;20199;-79
2022/11/23 18:43:21;;;;;;;0.60;0.60;;;;;;;;;;6309609;22;20177;-79
2022/11/23 18:45:48;;;;;;;0.60;0.60;;;;;;;;;;6312456;22;20156;-78
2022/11/23 18:48:13;;;;;;;0.70;0.70;;;;;;;;;;6311677;22;20569;-75
2022/11/23 18:50:39;;;;;;;0.70;0.70;;;;;;;;;;6306965;22;20158;-76
2022/11/23 18:53:05;;;;;;;0.70;0.70;;;;;;;;;;6306456;22;20166;-76
2022/11/23 18:55:32;;;;;;;0.73;0.73;;;;;;;;;;6306498;22;20532;-77
2022/11/23 18:57:58;;;;;;;0.60;0.60;;;;;;;;;;6306251;22;20517;-77
2022/11/23 19:00:24;;;;;;;0.80;0.80;;;;;;;;;;6306627;22;20149;-76
2022/11/23 19:02:51;;;;;;;0.60;0.60;;;;;;;;;;6305376;22;20176;-76
2022/11/23 19:05:18;;;;;;;0.67;0.67;;;;;;;;;;6303556;22;20228;-77
2022/11/23 19:07:44;;;;;;;0.60;0.60;;;;;;;;;;6303806;22;20153;-76
2022/11/23 19:10:10;;;;;;;0.60;0.60;;;;;;;;;;6304116;22;20141;-78
2022/11/23 19:12:36;;;;;;;0.70;0.70;;;;;;;;;;6302953;22;20246;-76
2022/11/23 19:15:04;;;;;;;0.60;0.60;;;;;;;;;;6304187;22;20153;-77
2022/11/23 19:17:30;;;;;;;0.60;0.60;;;;;;;;;;6304369;22;20184;-77
2022/11/23 19:19:55;;;;;;;0.70;0.70;;;;;;;;;;6305903;22;20603;-77
2022/11/23 19:22:22;;;;;;;0.70;0.70;;;;;;;;;;6305832;22;20173;-76
2022/11/23 19:24:48;;;;;;;0.60;0.60;;;;;;;;;;6306163;22;20244;-78
2022/11/23 19:27:14;;;;;;;0.60;0.60;;;;;;;;;;6306500;22;20137;-77
2022/11/23 19:29:40;;;;;;;0.70;0.70;;;;;;;;;;6305982;22;20618;-77
2022/11/23 19:32:06;;;;;;;0.50;0.50;;;;;;;;;;6304787;22;20610;-77
2022/11/23 19:34:33;;;;;;;0.60;0.60;;;;;;;;;;6306110;22;20150;-77
2022/11/23 19:36:59;;;;;;;0.50;0.50;;;;;;;;;;6305873;22;20661;-75
2022/11/23 19:39:25;;;;;;;0.60;0.60;;;;;;;;;;6305363;22;20181;-77
2022/11/23 19:41:51;;;;;;;0.60;0.60;;;;;;;;;;6305327;22;20149;-77
2022/11/23 19:44:17;;;;;;;0.60;0.60;;;;;;;;;;6305325;22;20203;-77
2022/11/23 19:46:43;;;;;;;0.70;0.70;;;;;;;;;;6306067;22;20206;-76
2022/11/23 19:49:09;;;;;;;0.60;0.60;;;;;;;;;;6305771;22;20145;-76
2022/11/23 19:51:35;;;;;;;0.60;0.60;;;;;;;;;;6305674;22;20157;-75
2022/11/23 19:54:01;;;;;;;0.60;0.60;;;;;;;;;;6305279;22;20169;-75
2022/11/23 19:56:28;;;;;;;0.60;0.60;;;;;;;;;;6305787;22;20153;-75
2022/11/23 19:58:55;;;;;;;0.60;0.60;;;;;;;;;;6305903;22;20191;-75
2022/11/23 20:01:22;;;;;;;0.60;0.60;;;;;;;;;;6306000;22;20149;-75
2022/11/23 20:03:49;;;;;;;0.63;0.63;;;;;;;;;;6305332;22;20173;-76
2022/11/23 20:06:15;;;;;;;0.70;0.70;;;;;;;;;;6305946;22;20150;-76
2022/11/23 20:08:41;;;;;;;0.70;0.70;;;;;;;;;;6305983;22;20176;-75
2022/11/23 20:11:12;;;;;;;0.60;0.60;;;;;;;;;;6305356;22;20592;-75
2022/11/23 20:13:38;;;;;;;0.70;0.70;;;;;;;;;;6305049;22;20251;-76
2022/11/23 20:16:04;;;;;;;0.70;0.70;;;;;;;;;;6305516;22;20181;-76
2022/11/23 20:18:31;;;;;;;0.70;0.70;;;;;;;;;;6305584;22;20224;-75
2022/11/23 20:20:57;;;;;;;0.70;0.70;;;;;;;;;;6305753;22;20714;-75
2022/11/23 20:23:23;;;;;;;0.60;0.60;;;;;;;;;;6304553;22;20180;-76
2022/11/23 20:25:49;;;;;;;0.70;0.70;;;;;;;;;;6304680;22;20240;-76
2022/11/23 20:28:15;;;;;;;0.70;0.70;;;;;;;;;;6305546;22;20225;-76
2022/11/23 20:30:42;;;;;;;0.53;0.53;;;;;;;;;;6305403;22;20232;-76
2022/11/23 20:33:08;;;;;;;0.63;0.63;;;;;;;;;;6304854;22;20216;-76
2022/11/23 20:35:35;;;;;;;0.60;0.60;;;;;;;;;;6305583;22;20153;-76
2022/11/23 20:38:00;;;;;;;0.60;0.60;;;;;;;;;;6305403;22;20211;-76
2022/11/23 20:40:27;;;;;;;0.80;0.80;;;;;;;;;;6305470;22;20536;-75
2022/11/23 20:42:56;;;;;;;0.70;0.70;;;;;;;;;;6304459;22;20619;-76
2022/11/23 20:45:22;;;;;;;0.67;0.67;;;;;;;;;;6305463;22;20149;-76
2022/11/23 20:47:52;;;;;;;0.70;0.70;;;;;;;;;;6305206;22;20531;-76
2022/11/23 20:50:23;;;;;;;0.67;0.67;;;;;;;;;;6305312;22;20160;-77
2022/11/23 20:52:49;;;;;;;0.60;0.60;;;;;;;;;;6304820;22;20196;-77
2022/11/23 20:55:22;;;;;;;0.60;0.60;;;;;;;;;;6305369;22;20245;-77
2022/11/23 20:57:48;;;;;;;0.50;0.50;;;;;;;;;;6305413;22;20141;-77
2022/11/23 21:00:15;;;;;;;0.67;0.67;;;;;;;;;;6305096;22;20285;-76
2022/11/23 21:02:41;;;;;;;0.60;0.60;;;;;;;;;;6304810;22;20183;-76
2022/11/23 21:05:07;;;;;;;0.60;0.60;;;;;;;;;;6305245;22;20155;-77
2022/11/23 21:07:33;;;;;;;0.60;0.60;;;;;;;;;;6305464;22;20153;-77
2022/11/23 21:09:59;;;;;;;0.60;0.60;;;;;;;;;;6305521;22;20264;-77
2022/11/23 21:15:10;;;;;;;0.60;0.60;;;;;;;;;;6305401;22;20187;-77
2022/11/23 21:17:36;;;;;;;0.60;0.60;;;;;;;;;;6306117;22;20157;-78
2022/11/23 21:20:02;;;;;;;0.50;0.50;;;;;;;;;;6309554;22;20250;-77
2022/11/23 21:22:28;;;;;;;0.70;0.70;;;;;;;;;;6319104;22;20219;-78
2022/11/23 21:24:54;;;;;;;0.60;0.60;;;;;;;;;;6313169;22;20169;-77
2022/11/23 21:27:23;;;;;;;0.60;0.60;;;;;;;;;;6305570;22;20191;-77
2022/11/23 21:29:50;;;;;;;0.57;0.57;;;;;;;;;;6305334;22;20533;-77
2022/11/23 21:32:16;;;;;;;0.63;0.63;;;;;;;;;;6304818;22;20532;-77
2022/11/23 21:34:42;;;;;;;0.70;0.70;;;;;;;;;;6305215;22;20584;-77
2022/11/23 21:37:10;;;;;;;0.50;0.50;;;;;;;;;;6277939;22;20282;-77
2022/11/23 21:39:36;;;;;;;0.60;0.60;;;;;;;;;;6210796;23;20183;-77
2022/11/23 21:42:03;;;;;;;0.60;0.60;;;;;;;;;;6210265;23;20238;-77
2022/11/23 21:44:28;;;;;;;0.60;0.60;;;;;;;;;;6183943;23;20160;-78
2022/11/23 21:46:54;;;;;;;0.60;0.60;;;;;;;;;;6181314;23;20152;-77
2022/11/23 21:49:21;;;;;;;0.60;0.60;;;;;;;;;;6183062;23;20156;-77
2022/11/23 21:51:47;;;;;;;0.70;0.70;;;;;;;;;;6183526;23;20180;-76
2022/11/23 21:54:14;;;;;;;0.60;0.60;;;;;;;;;;6181573;23;20172;-76
2022/11/23 21:56:44;;;;;;;0.60;0.60;;;;;;;;;;6181516;23;20154;-76
2022/11/23 21:59:10;;;;;;;0.57;0.57;;;;;;;;;;6182962;23;20188;-75
2022/11/23 22:01:36;;;;;;;0.60;0.60;;;;;;;;;;6180578;23;20566;-75
2022/11/23 22:04:07;;;;;;;0.70;0.70;;;;;;;;;;6179017;23;20176;-76
2022/11/23 22:06:33;;;;;;;0.60;0.60;;;;;;;;;;6193986;23;20152;-75
2022/11/23 22:08:59;;;;;;;0.70;0.70;;;;;;;;;;6181765;23;20160;-77
2022/11/23 22:11:27;;;;;;;0.60;0.60;;;;;;;;;;6199734;22;20147;-77
2022/11/23 22:13:57;;;;;;;0.80;0.80;;;;;;;;;;6193698;22;20264;-76
2022/11/23 22:16:24;;;;;;;0.70;0.70;;;;;;;;;;6202091;23;20148;-77
2022/11/23 22:18:50;;;;;;;0.70;0.70;;;;;;;;;;6196557;22;20188;-77
2022/11/23 22:21:17;;;;;;;0.60;0.60;;;;;;;;;;6180247;23;20169;-76
2022/11/23 22:23:44;;;;;;;0.70;0.70;;;;;;;;;;6179752;23;20286;-76
2022/11/23 22:26:11;;;;;;;0.60;0.60;;;;;;;;;;6179462;23;20156;-77
2022/11/23 22:28:38;;;;;;;0.70;0.70;;;;;;;;;;6179527;23;20163;-77
2022/11/23 22:31:05;;;;;;;0.60;0.60;;;;;;;;;;6179388;23;20492;-76
2022/11/23 22:33:31;;;;;;;0.60;0.60;;;;;;;;;;6178741;23;20622;-76
2022/11/23 22:36:00;;;;;;;0.60;0.60;;;;;;;;;;6180286;23;20152;-77
2022/11/23 22:38:27;;;;;;;0.60;0.60;;;;;;;;;;6179030;23;20203;-77
2022/11/23 22:40:53;;;;;;;0.60;0.60;;;;;;;;;;6179606;23;20227;-75
2022/11/23 22:43:19;;;;;;;0.63;0.63;;;;;;;;;;6180449;23;20241;-75
2022/11/23 22:45:45;;;;;;;0.60;0.60;;;;;;;;;;6192142;23;20614;-75
2022/11/23 22:48:10;;;;;;;0.70;0.70;;;;;;;;;;6184720;23;20475;-75
2022/11/23 22:50:37;;;;;;;0.70;0.70;;;;;;;;;;6184412;23;20156;-74
2022/11/23 22:53:02;;;;;;;0.60;0.60;;;;;;;;;;6182428;23;20174;-74
2022/11/23 22:55:29;;;;;;;0.60;0.60;;;;;;;;;;6179336;23;20231;-75
2022/11/23 22:57:55;;;;;;;0.70;0.70;;;;;;;;;;6178347;23;20657;-76
2022/11/23 23:00:21;;;;;;;0.70;0.70;;;;;;;;;;6178376;23;20183;-76
2022/11/23 23:02:47;;;;;;;0.60;0.60;;;;;;;;;;6178090;23;20183;-76
2022/11/23 23:05:13;;;;;;;0.60;0.60;;;;;;;;;;6178224;23;20594;-75
2022/11/23 23:07:39;;;;;;;0.60;0.60;;;;;;;;;;6178526;23;20345;-76
2022/11/23 23:10:05;;;;;;;0.60;0.60;;;;;;;;;;6178591;23;20239;-76
2022/11/23 23:12:31;;;;;;;0.60;0.60;;;;;;;;;;6177782;23;20168;-76
2022/11/23 23:14:57;;;;;;;0.70;0.70;;;;;;;;;;6179646;23;20239;-76
2022/11/23 23:17:24;;;;;;;0.60;0.60;;;;;;;;;;6180048;23;20182;-77
2022/11/23 23:19:49;;;;;;;0.70;0.70;;;;;;;;;;6179991;23;20523;-76
2022/11/23 23:22:15;;;;;;;0.70;0.70;;;;;;;;;;6179367;23;20590;-76
2022/11/23 23:24:42;;;;;;;0.70;0.70;;;;;;;;;;6180110;23;20152;-76
2022/11/23 23:27:09;;;;;;;0.60;0.60;;;;;;;;;;6180009;23;20145;-76
2022/11/23 23:29:35;;;;;;;0.60;0.60;;;;;;;;;;6180039;23;20148;-76
2022/11/23 23:32:00;;;;;;;0.60;0.60;;;;;;;;;;6179256;23;20204;-76
2022/11/23 23:34:26;;;;;;;0.70;0.70;;;;;;;;;;6180012;23;20183;-76
2022/11/23 23:36:52;;;;;;;0.60;0.60;;;;;;;;;;6180101;23;20168;-76
2022/11/23 23:39:18;;;;;;;0.60;0.60;;;;;;;;;;6180211;23;20184;-75
2022/11/23 23:41:44;;;;;;;0.60;0.60;;;;;;;;;;6180826;23;20202;-75
2022/11/23 23:44:10;;;;;;;0.63;0.63;;;;;;;;;;6180177;23;20190;-75
2022/11/23 23:46:37;;;;;;;0.60;0.60;;;;;;;;;;6180056;23;20175;-75
2022/11/23 23:49:03;;;;;;;0.63;0.63;;;;;;;;;;6180081;23;20148;-75
2022/11/23 23:51:28;;;;;;;0.60;0.60;;;;;;;;;;6179848;23;20167;-76
2022/11/23 23:53:56;;;;;;;0.60;0.60;;;;;;;;;;6179000;23;20180;-76
2022/11/23 23:56:23;;;;;;;0.60;0.60;;;;;;;;;;6179907;23;20538;-76
2022/11/23 23:58:49;;;;;;;0.70;0.70;;;;;;;;;;6179725;23;20282;-76
